Airfield :
LOGIN :

Register | Disclaimer

   EN    FR    IT 

 










Legend :    VFR   Marginal VFR   IFR   Intensive IFR   Very Intensive IFR
Visi :
Ceiling :
>= 8 km
>= 3000ft
5 to 8 km
1000 to 3000 ft
1500m to 5 km
500 to 1000 ft
800 to 1500m
200 to 500 ft
< 800m
< 200 ft
Symbols :   Thunderstorms  Fog  Heavy snow  Heavy precipitations  Wind > 20 kt
SIGMETs :     Misc.  Thunderstorms  Icing  Turbulence  Mountain Waves  Volcanic Ashes






- Airport Elevation : 265 ft
- IATA code : FOG


LIBF - Foggia / Gino Lisa

CURRENT METAR :
  • 011350Z 25021G32KT CAVOK 39/12 Q1008

EXPIRED METARs :
  • 011250Z 23017G28KT 190V260 CAVOK 39/12 Q1008
  • 011224Z 23019G30KT 200V270 CAVOK 40/12 Q1008
  • 011150Z 22021KT 190V250 CAVOK 39/12 Q1008

TAF COR TAF LIBF
Valid from the 01 at 12:00 until the 02 at 12:00 UTC


011315Z 0112/0212 22014KT 9999 FEW060
TEMPO 0112/0118 22018G28KT
BECMG 0122/0124 VRB05KT



MET'MAP, your aeronautical weather chart ! - Copyright ORBIFLY December 2007 - Disclaimer

ORBIFLY MET'MAP TEAM :

Programming & Development : Alexandra Zaïnal
Concept & original design : Baudouin d'Aumeries
Assistance for programming : Marc-Olivier Méhu
Technical & hardware support : Manuel Goepfert

Contact : metmap@orbifly.com




SOURCES & CREDITS :

   NOAA